createdAt,value
2022-08-04T00:01:41.488Z,26.31
2022-08-04T00:04:30.712Z,26.30
2022-08-04T00:07:44.126Z,26.16
2022-08-04T00:10:14.279Z,26.33
2022-08-04T00:12:45.445Z,26.34
2022-08-04T00:15:16.537Z,26.36
2022-08-04T00:18:07.158Z,26.29
2022-08-04T00:20:39.066Z,26.20
2022-08-04T00:23:07.288Z,26.20
2022-08-04T00:25:40.600Z,26.14
2022-08-04T00:28:09.023Z,26.03
2022-08-04T00:30:36.878Z,26.14
2022-08-04T00:33:04.706Z,25.99
2022-08-04T00:35:33.171Z,25.97
2022-08-04T00:38:01.738Z,26.05
2022-08-04T00:41:23.249Z,25.90
2022-08-04T00:44:13.497Z,25.89
2022-08-04T00:46:51.250Z,25.83
2022-08-04T00:49:48.407Z,25.87
2022-08-04T00:52:43.912Z,25.76
2022-08-04T00:55:26.576Z,25.72
2022-08-04T00:58:14.163Z,25.67
2022-08-04T01:01:03.570Z,25.67
2022-08-04T01:03:50.300Z,25.73
2022-08-04T01:06:30.675Z,25.70
2022-08-04T01:09:21.397Z,25.59
2022-08-04T01:12:26.923Z,25.59
2022-08-04T01:15:00.229Z,25.59
2022-08-04T01:17:49.542Z,25.53
2022-08-04T01:20:21.410Z,25.64
2022-08-04T01:23:26.493Z,25.47
2022-08-04T01:26:09.743Z,25.54
2022-08-04T01:29:14.255Z,25.76
2022-08-04T01:31:49.173Z,25.87
2022-08-04T01:34:19.671Z,25.82
2022-08-04T01:37:03.859Z,25.70
2022-08-04T01:39:42.162Z,25.77
2022-08-04T01:42:11.751Z,25.68
2022-08-04T01:44:41.562Z,25.62
2022-08-04T01:47:09.881Z,25.64
2022-08-04T01:49:40.434Z,25.61
2022-08-04T01:52:10.256Z,25.68
2022-08-04T01:54:39.582Z,25.68
2022-08-04T01:57:37.521Z,25.66
2022-08-04T01:59:58.577Z,25.64
2022-08-04T02:02:26.243Z,25.76
2022-08-04T02:04:54.162Z,25.72
2022-08-04T02:07:28.682Z,25.81
2022-08-04T02:10:08.598Z,25.73
2022-08-04T02:13:05.015Z,25.79
2022-08-04T02:15:57.456Z,25.75
2022-08-04T02:18:30.101Z,25.73
2022-08-04T02:21:02.505Z,25.72
2022-08-04T02:23:41.079Z,25.83
2022-08-04T02:26:23.187Z,25.63
2022-08-04T02:29:08.831Z,25.75
2022-08-04T02:31:47.519Z,25.78
2022-08-04T02:34:42.687Z,25.78
2022-08-04T02:37:11.802Z,25.80
2022-08-04T02:39:49.255Z,25.88
2022-08-04T02:42:17.933Z,25.89
2022-08-04T02:44:51.669Z,26.03
2022-08-04T02:47:21.795Z,26.04
2022-08-04T02:49:51.298Z,26.17
2022-08-04T02:52:20.363Z,26.25
2022-08-04T02:54:50.987Z,26.25
2022-08-04T02:57:20.122Z,26.18
2022-08-04T03:00:15.388Z,26.28
2022-08-04T03:03:06.249Z,26.28
2022-08-04T03:05:54.158Z,26.37
2022-08-04T03:08:31.754Z,26.13
2022-08-04T03:11:43.384Z,26.38
2022-08-04T03:14:32.839Z,26.38
2022-08-04T03:17:29.412Z,26.36
2022-08-04T03:20:18.033Z,26.31
2022-08-04T03:23:13.382Z,26.29
2022-08-04T03:26:08.309Z,26.38
2022-08-04T03:28:41.784Z,26.47
2022-08-04T03:31:30.961Z,26.36
2022-08-04T03:34:13.110Z,26.43
2022-08-04T03:36:55.402Z,26.52
2022-08-04T03:39:32.255Z,26.52
2022-08-04T03:42:24.784Z,26.55
2022-08-04T03:45:28.810Z,26.63
2022-08-04T03:48:23.554Z,26.57
2022-08-04T03:51:39.091Z,26.71
2022-08-04T03:54:23.329Z,26.70
2022-08-04T03:57:09.404Z,26.87
2022-08-04T04:00:14.606Z,26.73
2022-08-04T04:02:59.043Z,26.68
2022-08-04T04:05:59.983Z,26.70
2022-08-04T04:08:49.741Z,26.81
2022-08-04T04:11:35.539Z,26.83
2022-08-04T04:14:29.128Z,26.83
2022-08-04T04:17:33.616Z,26.98
2022-08-04T04:20:20.063Z,26.85
2022-08-04T04:23:05.942Z,26.75
2022-08-04T04:25:42.409Z,26.85
2022-08-04T04:28:45.764Z,26.93
2022-08-04T04:31:36.515Z,27.00
2022-08-04T04:34:19.141Z,26.98
2022-08-04T04:37:06.251Z,26.94
2022-08-04T04:39:56.502Z,27.10
2022-08-04T04:42:36.502Z,27.16
2022-08-04T04:45:25.926Z,27.18
2022-08-04T04:48:10.807Z,27.20
2022-08-04T04:50:52.228Z,27.16
2022-08-04T04:53:23.485Z,27.29
2022-08-04T04:56:00.615Z,27.36
2022-08-04T04:58:32.067Z,27.51
2022-08-04T05:01:18.373Z,27.71
2022-08-04T05:03:57.075Z,27.67
2022-08-04T05:06:39.815Z,27.66
2022-08-04T05:09:07.489Z,27.82
2022-08-04T05:11:51.129Z,27.87
2022-08-04T05:14:41.200Z,28.10
2022-08-04T05:17:22.271Z,28.15
2022-08-04T05:19:52.859Z,28.20
2022-08-04T05:22:30.024Z,28.29
2022-08-04T05:25:07.500Z,28.19
2022-08-04T05:27:40.178Z,27.79
2022-08-04T05:30:09.321Z,27.68
2022-08-04T05:32:50.898Z,27.72
2022-08-04T05:35:47.904Z,27.85
2022-08-04T05:38:19.266Z,28.03
2022-08-04T05:40:47.639Z,28.04
2022-08-04T05:43:16.156Z,28.03
2022-08-04T05:45:44.812Z,27.89
2022-08-04T05:48:12.770Z,27.58
2022-08-04T05:50:40.758Z,27.08
2022-08-04T05:53:09.966Z,27.22
2022-08-04T05:55:56.682Z,27.29
2022-08-04T05:58:25.568Z,27.43
2022-08-04T06:00:54.035Z,27.48
2022-08-04T06:03:22.650Z,27.41
2022-08-04T06:05:50.229Z,27.43
2022-08-04T06:08:17.969Z,27.33
2022-08-04T06:10:47.152Z,27.53
2022-08-04T06:13:49.730Z,27.55
2022-08-04T06:16:06.698Z,27.48
2022-08-04T06:20:02.635Z,27.52
2022-08-04T06:21:27.219Z,27.27
2022-08-04T06:24:01.046Z,27.20
2022-08-04T06:26:34.014Z,27.77
2022-08-04T06:29:03.256Z,27.81
2022-08-04T06:32:30.932Z,27.65
2022-08-04T06:34:31.626Z,27.79
2022-08-04T06:36:59.754Z,27.32
2022-08-04T06:39:28.185Z,27.56
2022-08-04T06:42:21.390Z,27.55
2022-08-04T06:44:49.745Z,27.85
2022-08-04T06:47:19.666Z,27.94
2022-08-04T06:51:23.298Z,27.87
2022-08-04T06:52:38.962Z,28.27
2022-08-04T06:55:08.132Z,28.06
2022-08-04T06:57:36.611Z,28.21
2022-08-04T07:00:11.333Z,28.29
2022-08-04T07:02:46.098Z,28.15
2022-08-04T07:05:14.598Z,27.84
2022-08-04T07:07:56.576Z,28.14
2022-08-04T07:10:28.200Z,28.56
2022-08-04T07:13:01.559Z,28.65
2022-08-04T07:15:29.986Z,28.47
2022-08-04T07:18:03.634Z,28.63
2022-08-04T07:20:35.694Z,28.89
2022-08-04T07:23:04.886Z,28.98
2022-08-04T07:25:58.505Z,28.78
2022-08-04T07:28:24.565Z,28.88
2022-08-04T07:30:54.038Z,29.11
2022-08-04T07:33:22.581Z,28.96
2022-08-04T07:36:04.975Z,28.99
2022-08-04T07:38:48.634Z,28.77
2022-08-04T07:41:39.343Z,29.43
2022-08-04T07:44:07.927Z,29.36
2022-08-04T07:46:38.299Z,29.16
2022-08-04T07:49:06.314Z,29.58
2022-08-04T07:51:36.421Z,29.16
2022-08-04T07:54:05.457Z,29.29
2022-08-04T07:56:33.841Z,29.48
2022-08-04T07:59:02.808Z,29.66
2022-08-04T08:01:30.768Z,29.42
2022-08-04T08:04:00.679Z,29.34
2022-08-04T08:06:33.273Z,29.55
2022-08-04T08:09:14.715Z,29.55
2022-08-04T08:12:36.166Z,29.62
2022-08-04T08:14:31.739Z,29.24
2022-08-04T08:17:02.467Z,29.69
2022-08-04T08:19:34.757Z,29.64
2022-08-04T08:22:03.099Z,29.93
2022-08-04T08:24:33.827Z,29.78
2022-08-04T08:27:04.367Z,30.05
2022-08-04T08:29:34.143Z,29.86
2022-08-04T08:32:08.325Z,30.06
2022-08-04T08:34:38.490Z,30.51
2022-08-04T08:37:35.134Z,30.10
2022-08-04T08:40:40.215Z,30.52
2022-08-04T08:44:04.524Z,30.02
2022-08-04T08:46:48.379Z,30.49
2022-08-04T08:50:01.091Z,30.67
2022-08-04T08:53:01.123Z,31.23
2022-08-04T08:55:37.106Z,31.42
2022-08-04T08:58:23.710Z,31.44
2022-08-04T09:01:07.126Z,31.40
2022-08-04T09:04:23.578Z,31.10
2022-08-04T09:07:06.976Z,31.70
2022-08-04T09:10:03.085Z,31.80
2022-08-04T09:12:41.761Z,31.37
2022-08-04T09:15:28.977Z,31.66
2022-08-04T09:18:22.544Z,31.66
2022-08-04T09:20:56.925Z,31.79
2022-08-04T09:23:24.736Z,32.12
2022-08-04T09:26:09.043Z,32.11
2022-08-04T09:29:05.992Z,31.91
2022-08-04T09:31:49.166Z,32.63
2022-08-04T09:35:03.096Z,32.45
2022-08-04T09:37:58.529Z,32.96
2022-08-04T09:40:35.665Z,33.03
2022-08-04T09:44:40.798Z,33.21
2022-08-04T09:47:06.627Z,33.12
2022-08-04T09:49:50.782Z,33.37
2022-08-04T09:52:28.782Z,33.92
2022-08-04T09:55:09.758Z,33.38
2022-08-04T09:57:40.999Z,34.01
2022-08-04T10:00:10.109Z,33.83
2022-08-04T10:02:57.154Z,34.16
2022-08-04T10:05:50.073Z,34.38
2022-08-04T10:08:52.053Z,34.51
2022-08-04T10:12:00.351Z,34.89
2022-08-04T10:14:46.758Z,34.87
2022-08-04T10:17:51.951Z,35.17
2022-08-04T10:20:33.979Z,34.90
2022-08-04T10:23:26.752Z,35.06
2022-08-04T10:26:08.050Z,34.79
2022-08-04T10:28:44.293Z,34.99
2022-08-04T10:31:19.897Z,35.30
2022-08-04T10:34:12.138Z,35.28
2022-08-04T10:36:55.908Z,35.36
2022-08-04T10:40:36.443Z,35.66
2022-08-04T10:43:22.050Z,35.44
2022-08-04T10:45:58.814Z,35.91
2022-08-04T10:48:45.702Z,36.02
2022-08-04T10:51:20.259Z,35.82
2022-08-04T10:53:51.843Z,35.16
2022-08-04T10:56:30.195Z,35.06
2022-08-04T10:59:02.876Z,35.76
2022-08-04T11:02:00.078Z,36.03
2022-08-04T11:04:46.833Z,36.19
2022-08-04T11:07:15.518Z,36.35
2022-08-04T11:09:44.687Z,36.13
2022-08-04T11:12:26.053Z,36.31
2022-08-04T11:14:59.926Z,36.55
2022-08-04T11:17:33.763Z,36.77
2022-08-04T11:20:35.211Z,36.66
2022-08-04T11:23:05.918Z,36.45
2022-08-04T11:25:55.474Z,36.08
2022-08-04T11:29:03.743Z,35.62
2022-08-04T11:31:36.001Z,35.78
2022-08-04T11:34:12.737Z,35.96
2022-08-04T11:36:52.612Z,36.65
2022-08-04T11:39:34.194Z,36.78
2022-08-04T11:42:10.938Z,36.81
2022-08-04T11:44:44.443Z,36.53
2022-08-04T11:47:24.650Z,36.19
2022-08-04T11:50:20.423Z,36.46
2022-08-04T11:52:49.699Z,35.96
2022-08-04T11:55:21.309Z,36.01
2022-08-04T11:57:54.268Z,35.45
2022-08-04T12:00:22.739Z,35.42
2022-08-04T12:03:20.177Z,35.58
2022-08-04T12:06:20.967Z,34.97
2022-08-04T12:09:01.513Z,35.87
2022-08-04T12:11:46.981Z,35.85
2022-08-04T12:14:35.100Z,35.58
2022-08-04T12:17:04.840Z,35.73
2022-08-04T12:20:04.491Z,35.32
2022-08-04T12:22:43.847Z,35.96
2022-08-04T12:25:20.471Z,35.68
2022-08-04T12:27:52.182Z,35.28
2022-08-04T12:30:59.579Z,35.77
2022-08-04T12:33:17.672Z,35.78
2022-08-04T12:36:10.422Z,34.96
2022-08-04T12:38:47.451Z,35.71
2022-08-04T12:41:19.363Z,34.86
2022-08-04T12:43:47.477Z,34.25
2022-08-04T12:46:24.743Z,34.60
2022-08-04T12:48:53.888Z,35.03
2022-08-04T12:52:06.312Z,35.00
2022-08-04T12:54:12.217Z,34.94
2022-08-04T12:56:40.953Z,35.09
2022-08-04T12:59:12.494Z,35.26
2022-08-04T13:02:10.154Z,34.58
2022-08-04T13:04:38.303Z,34.53
2022-08-04T13:07:12.421Z,35.10
2022-08-04T13:09:40.658Z,34.93
2022-08-04T13:12:20.912Z,34.82
2022-08-04T13:14:51.466Z,34.77
2022-08-04T13:17:20.015Z,34.31
2022-08-04T13:19:54.980Z,34.14
2022-08-04T13:22:28.299Z,34.57
2022-08-04T13:26:41.451Z,34.70
2022-08-04T13:27:48.716Z,34.99
2022-08-04T13:30:23.600Z,35.05
2022-08-04T13:32:59.173Z,35.18
2022-08-04T13:35:54.633Z,35.24
2022-08-04T13:38:19.705Z,35.08
2022-08-04T13:40:55.595Z,34.54
2022-08-04T13:44:16.448Z,34.86
2022-08-04T13:46:28.167Z,34.23
2022-08-04T13:51:59.856Z,34.58
2022-08-04T13:54:36.936Z,34.84
2022-08-04T13:57:24.364Z,34.89
2022-08-04T13:59:54.428Z,34.61
2022-08-04T14:02:50.520Z,34.89
2022-08-04T14:05:31.241Z,35.30
2022-08-04T14:08:08.565Z,35.46
2022-08-04T14:10:37.256Z,35.59
2022-08-04T14:13:06.706Z,35.69
2022-08-04T14:16:01.205Z,35.25
2022-08-04T14:18:23.798Z,35.58
2022-08-04T14:21:11.471Z,35.39
2022-08-04T14:23:49.837Z,35.05
2022-08-04T14:26:31.412Z,35.11
2022-08-04T14:29:27.099Z,35.50
2022-08-04T14:32:05.978Z,35.70
2022-08-04T14:34:41.758Z,34.90
2022-08-04T14:37:17.436Z,35.08
2022-08-04T14:40:19.252Z,34.82
2022-08-04T14:42:55.800Z,34.93
2022-08-04T14:45:54.949Z,34.94
2022-08-04T14:48:23.353Z,35.07
2022-08-04T14:50:52.592Z,35.39
2022-08-04T14:53:22.603Z,34.95
2022-08-04T14:55:57.003Z,35.00
2022-08-04T14:58:35.529Z,35.22
2022-08-04T15:01:10.250Z,35.53
2022-08-04T15:03:50.379Z,35.45
2022-08-04T15:06:27.151Z,35.79
2022-08-04T15:08:57.995Z,35.73
2022-08-04T15:11:26.415Z,34.97
2022-08-04T15:13:55.468Z,35.44
2022-08-04T15:16:25.529Z,35.54
2022-08-04T15:18:54.555Z,35.52
2022-08-04T15:21:23.875Z,35.88
2022-08-04T15:23:51.950Z,35.90
2022-08-04T15:26:28.109Z,35.55
2022-08-04T15:29:02.218Z,35.50
2022-08-04T15:32:08.500Z,35.70
2022-08-04T15:34:24.015Z,35.43
2022-08-04T15:36:58.043Z,35.48
2022-08-04T15:39:55.587Z,35.85
2022-08-04T15:42:34.259Z,35.52
2022-08-04T15:45:05.530Z,35.32
2022-08-04T15:47:33.132Z,35.51
2022-08-04T15:50:11.857Z,35.16
2022-08-04T15:53:10.329Z,35.38
2022-08-04T15:55:42.842Z,35.61
2022-08-04T15:58:13.354Z,35.76
2022-08-04T16:00:49.987Z,35.67
2022-08-04T16:03:54.237Z,35.86
2022-08-04T16:06:27.463Z,35.74
2022-08-04T16:08:59.525Z,35.12
2022-08-04T16:11:40.537Z,34.70
2022-08-04T16:14:11.585Z,34.60
2022-08-04T16:16:50.942Z,34.92
2022-08-04T16:19:21.542Z,35.19
2022-08-04T16:21:50.995Z,35.27
2022-08-04T16:24:22.599Z,35.35
2022-08-04T16:26:54.884Z,35.03
2022-08-04T16:29:24.064Z,35.40
2022-08-04T16:32:12.729Z,35.22
2022-08-04T16:34:55.160Z,35.65
2022-08-04T16:37:29.361Z,35.74
2022-08-04T16:40:29.784Z,35.20
2022-08-04T16:43:06.799Z,35.30
2022-08-04T16:45:55.466Z,35.33
2022-08-04T16:48:32.111Z,35.55
2022-08-04T16:51:09.524Z,35.27
2022-08-04T16:54:03.690Z,35.04
2022-08-04T16:56:36.130Z,35.34
2022-08-04T16:59:11.302Z,35.21
2022-08-04T17:01:52.066Z,35.27
2022-08-04T17:04:29.857Z,35.34
2022-08-04T17:07:02.607Z,35.31
2022-08-04T17:09:30.733Z,35.07
2022-08-04T17:11:59.287Z,35.13
2022-08-04T17:14:30.836Z,35.13
2022-08-04T17:17:02.526Z,34.95
2022-08-04T17:19:30.072Z,34.95
2022-08-04T17:22:07.322Z,34.95
2022-08-04T17:24:41.041Z,34.74
2022-08-04T17:28:09.179Z,34.88
2022-08-04T17:30:01.118Z,34.83
2022-08-04T17:32:28.681Z,34.81
2022-08-04T17:35:03.752Z,34.64
2022-08-04T17:37:40.038Z,34.63
2022-08-04T17:40:18.094Z,34.48
2022-08-04T17:44:03.430Z,34.52
2022-08-04T17:46:28.743Z,34.37
2022-08-04T17:48:59.171Z,34.32
2022-08-04T17:52:02.926Z,34.26
2022-08-04T17:54:39.170Z,34.23
2022-08-04T17:57:21.839Z,34.11
2022-08-04T17:59:58.904Z,34.08
2022-08-04T18:02:35.153Z,33.85
2022-08-04T18:05:06.846Z,33.83
2022-08-04T18:08:38.343Z,33.78
2022-08-04T18:10:56.260Z,33.79
2022-08-04T18:13:26.232Z,33.92
2022-08-04T18:16:14.386Z,33.79
2022-08-04T18:19:15.323Z,33.69
2022-08-04T18:22:00.336Z,33.55
2022-08-04T18:24:34.066Z,33.44
2022-08-04T18:27:06.541Z,33.51
2022-08-04T18:29:39.029Z,33.35
2022-08-04T18:32:09.848Z,33.40
2022-08-04T18:34:54.730Z,33.35
2022-08-04T18:38:05.865Z,33.37
2022-08-04T18:40:30.157Z,33.34
2022-08-04T18:43:01.921Z,33.27
2022-08-04T18:45:34.632Z,33.24
2022-08-04T18:48:14.232Z,33.20
2022-08-04T18:51:10.988Z,33.11
2022-08-04T18:53:35.379Z,33.00
2022-08-04T18:56:20.076Z,32.86
2022-08-04T18:58:57.285Z,32.81
2022-08-04T19:01:29.693Z,32.78
2022-08-04T19:03:58.640Z,32.62
2022-08-04T19:06:27.514Z,32.60
2022-08-04T19:08:56.589Z,32.55
2022-08-04T19:11:37.731Z,32.33
2022-08-04T19:14:06.501Z,32.25
2022-08-04T19:16:46.050Z,32.20
2022-08-04T19:19:18.024Z,32.06
2022-08-04T19:21:59.801Z,31.98
2022-08-04T19:24:34.196Z,31.95
2022-08-04T19:27:08.423Z,31.81
2022-08-04T19:29:42.958Z,31.37
2022-08-04T19:32:16.026Z,31.26
2022-08-04T19:34:47.862Z,31.26
2022-08-04T19:38:01.440Z,31.18
2022-08-04T19:40:10.136Z,31.17
2022-08-04T19:42:44.928Z,30.95
2022-08-04T19:45:19.059Z,30.72
2022-08-04T19:48:18.035Z,30.82
2022-08-04T19:50:45.438Z,30.82
2022-08-04T19:53:19.667Z,30.68
2022-08-04T19:55:51.644Z,30.59
2022-08-04T19:58:21.474Z,30.54
2022-08-04T20:00:54.977Z,30.54
2022-08-04T20:04:09.923Z,30.43
2022-08-04T20:06:13.953Z,30.38
2022-08-04T20:08:48.561Z,30.22
2022-08-04T20:11:29.836Z,30.28
2022-08-04T20:13:58.655Z,30.19
2022-08-04T20:19:16.531Z,30.12
2022-08-04T20:21:55.389Z,30.01
2022-08-04T20:24:37.725Z,29.94
2022-08-04T20:27:14.921Z,29.92
2022-08-04T20:29:49.429Z,29.66
2022-08-04T20:32:26.365Z,29.68
2022-08-04T20:34:56.153Z,29.47
2022-08-04T20:37:25.900Z,29.45
2022-08-04T20:40:20.760Z,29.12
2022-08-04T20:42:57.190Z,29.30
2022-08-04T20:45:56.708Z,29.25
2022-08-04T20:48:14.739Z,29.22
2022-08-04T20:50:47.501Z,29.10
2022-08-04T20:53:16.614Z,29.03
2022-08-04T20:55:54.585Z,29.01
2022-08-04T20:58:27.601Z,29.03
2022-08-04T21:00:56.026Z,28.84
2022-08-04T21:03:49.625Z,28.75
2022-08-04T21:06:17.303Z,28.78
2022-08-04T21:08:57.223Z,28.66
2022-08-04T21:11:32.717Z,28.72
2022-08-04T21:14:01.169Z,28.65
2022-08-04T21:16:55.311Z,28.78
2022-08-04T21:19:28.034Z,28.77
2022-08-04T21:21:55.907Z,28.85
2022-08-04T21:24:26.082Z,28.77
2022-08-04T21:27:04.061Z,28.62
2022-08-04T21:29:35.656Z,28.72
2022-08-04T21:32:08.665Z,28.41
2022-08-04T21:34:40.542Z,28.41
2022-08-04T21:37:11.251Z,28.32
2022-08-04T21:39:50.177Z,28.36
2022-08-04T21:42:28.955Z,28.46
2022-08-04T21:45:05.349Z,28.40
2022-08-04T21:47:46.518Z,28.24
2022-08-04T21:50:20.413Z,28.36
2022-08-04T21:52:49.724Z,28.29
2022-08-04T21:55:19.043Z,28.29
2022-08-04T21:57:51.509Z,27.99
2022-08-04T22:00:21.310Z,28.25
2022-08-04T22:02:53.903Z,28.30
2022-08-04T22:05:24.788Z,28.30
2022-08-04T22:07:53.890Z,28.10
2022-08-04T22:13:22.742Z,28.05
2022-08-04T22:16:04.496Z,28.13
2022-08-04T22:18:36.869Z,28.06
2022-08-04T22:21:11.809Z,28.16
2022-08-04T22:23:45.371Z,28.10
2022-08-04T22:26:20.156Z,28.23
2022-08-04T22:28:56.771Z,28.16
2022-08-04T22:31:26.581Z,28.26
2022-08-04T22:34:17.663Z,28.31
2022-08-04T22:36:53.347Z,28.33
2022-08-04T22:39:27.602Z,28.18
2022-08-04T22:42:03.163Z,28.32
2022-08-04T22:44:34.828Z,28.23
2022-08-04T22:47:05.882Z,28.29
2022-08-04T22:49:35.989Z,28.20
2022-08-04T22:52:09.875Z,28.23
2022-08-04T22:54:40.590Z,28.25
2022-08-04T22:57:11.452Z,28.24
2022-08-04T22:59:43.406Z,28.17
2022-08-04T23:02:11.314Z,28.20
2022-08-04T23:04:44.870Z,28.18
2022-08-04T23:07:18.005Z,28.07
2022-08-04T23:09:51.753Z,28.10
2022-08-04T23:12:25.383Z,28.04
2022-08-04T23:14:55.067Z,28.06
2022-08-04T23:17:27.927Z,28.19
2022-08-04T23:19:59.283Z,28.28
2022-08-04T23:22:41.069Z,28.26
2022-08-04T23:25:15.302Z,28.24
2022-08-04T23:27:52.439Z,28.21
2022-08-04T23:30:21.597Z,28.15
2022-08-04T23:32:58.168Z,28.15
2022-08-04T23:35:28.409Z,28.15
2022-08-04T23:37:59.807Z,28.17
2022-08-04T23:40:49.951Z,28.21
2022-08-04T23:43:20.800Z,28.30
2022-08-04T23:46:02.005Z,28.14
2022-08-04T23:48:37.140Z,28.12
2022-08-04T23:51:14.318Z,28.26
2022-08-04T23:54:02.447Z,28.23
2022-08-04T23:56:34.902Z,28.33
2022-08-04T23:59:04.997Z,28.12
